This is the latest recevied weather packets stored in our database for station/object N5JXS. If no packets are shown the sender has not sent any weather packets the latest 10 day(s).
| Time | Temp. | Humidity | Pressure | Rain* | Wind** | Luminosity | Snow |
|---|---|---|---|---|---|---|---|
| 1788173984 | 15° C | 64% | 1027 hPa | 0 mm | - | 0 W/m² | - |
| 1788173680 | 15° C | 62% | 1027.1 hPa | 0 mm | - | 0 W/m² | - |
| 1788173380 | 15.56° C | 60% | 1027.1 hPa | 0 mm | - | 0 W/m² | - |
| 1788173076 | 16.67° C | 55% | 1027 hPa | 0 mm | - | 0 W/m² | - |
| 1788172772 | 17.22° C | 51% | 1027 hPa | 0 mm | - | 0 W/m² | - |
| 1788172466 | 16.11° C | 52% | 1027 hPa | 0 mm | - | 0 W/m² | - |
| 1788172161 | 16.11° C | 56% | 1027 hPa | 0 mm | - | 0 W/m² | - |
| 1788171856 | 16.11° C | 54% | 1027.2 hPa | 0 mm | - | 0 W/m² | - |
| 1788171552 | 15.56° C | 55% | 1026.8 hPa | 0 mm | - | 0 W/m² | - |
| 1788171247 | 15.56° C | 58% | 1026.6 hPa | 0 mm | - | 0 W/m² | - |
| 1788170943 | 16.11° C | 55% | 1026.7 hPa | 0 mm | - | 0 W/m² | - |
| 1788170639 | 16.11° C | 54% | 1026.7 hPa | 0 mm | - | 0 W/m² | - |
| 1788170338 | 15.56° C | 56% | 1026.7 hPa | 0 mm | - | 0 W/m² | - |
| 1788170037 | 15.56° C | 58% | 1026.8 hPa | 0 mm | - | 0 W/m² | - |
| 1788169733 | 15.56° C | 59% | 1026.7 hPa | 0 mm | - | 0 W/m² | - |
| 1788169429 | 15.56° C | 59% | 1026.8 hPa | 0 mm | - | 0 W/m² | - |
| 1788169124 | 15° C | 60% | 1026.6 hPa | 0 mm | - | 0 W/m² | - |
| 1788168819 | 15° C | 62% | 1026.6 hPa | 0 mm | - | 0 W/m² | - |
| 1788168516 | 15° C | 62% | 1026.6 hPa | 0 mm | - | 0 W/m² | - |
| 1788168211 | 15° C | 61% | 1026.3 hPa | 0 mm | - | 0 W/m² | - |
| 1788167906 | 15° C | 62% | 1026.5 hPa | 0 mm | - | 0 W/m² | - |
| 1788167602 | 15° C | 64% | 1026.5 hPa | 0 mm | - | 0 W/m² | - |
| 1788167297 | 15° C | 61% | 1026.2 hPa | 0 mm | - | 0 W/m² | - |
| 1788167001 | 15° C | 62% | 1026.3 hPa | 0 mm | - | 0 W/m² | - |
| 1788166689 | 15° C | 66% | 1026.3 hPa | 0 mm | - | 0 W/m² | - |
* Rain latest hour (hover to see other rain measurements)
** Current wind speed in m/s (hover to see current wind gust speed)